Time;durP1;ratioP1;P1;durP2;ratioP2;P2;SDS_P1;SDS_P2;PMS_P1;PMS_P2;Temp;Humidity;BMP_temperature;BMP_pressure;BME280_temperature;BME280_humidity;BME280_pressure;Samples;Min_cycle;Max_cycle;Signal;HPM_P1;HPM_P2
2022/10/08 00:00:56;;;;;;;;;;;;;;;-144.99;82.05;52342.09;5067529;28;19929;-80
2022/10/08 00:03:23;;;;;;;;;;;;;;;-144.99;82.51;52391.03;5073654;28;20518;-80
2022/10/08 00:05:57;;;;;;;;;;;;;;;-144.99;82.08;52399.19;5069439;28;19924;-81
2022/10/08 00:08:23;;;;;;;;;;;;;;;-144.99;82.09;52378.78;5073047;28;19951;-81
2022/10/08 00:10:52;;;;;;;;;;;;;;;-144.99;82.02;52372.69;5067433;28;19924;-83
2022/10/08 00:13:20;;;;;;;;;;;;;;;-144.99;81.94;52366.56;5067953;28;19996;-81
2022/10/08 00:15:46;;;;;;;;;;;;;;;-144.99;82.35;52338.03;5078674;28;19913;-85
2022/10/08 00:18:12;;;;;;;;;;;;;;;-144.99;82.81;52354.34;5099312;28;20004;-86
2022/10/08 00:20:39;;;;;;;;;;;;;;;-144.99;82.67;52399.19;5067795;28;20299;-79
2022/10/08 00:23:05;;;;;;;;;;;;;;;-144.99;82.69;52366.56;5065814;28;20367;-81
2022/10/08 00:25:31;;;;;;;;;;;;;;;-144.99;83.10;52399.19;5067286;28;19936;-79
2022/10/08 00:27:58;;;;;;;;;;;;;;;-144.99;83.01;52378.78;5074511;28;19928;-81
2022/10/08 00:30:25;;;;;;;;;;;;;;;-144.99;83.43;52403.25;5064545;28;19939;-80
2022/10/08 00:32:51;;;;;;;;;;;;;;;-144.99;83.41;52386.94;5064127;28;19940;-80
2022/10/08 00:35:18;;;;;;;;;;;;;;;-144.99;83.99;52384.91;5063067;28;20267;-81
2022/10/08 00:37:44;;;;;;;;;;;;;;;-144.99;84.13;52380.84;5067459;28;20053;-80
2022/10/08 00:40:10;;;;;;;;;;;;;;;-144.99;84.70;52368.59;5062341;28;19940;-80
2022/10/08 00:42:37;;;;;;;;;;;;;;;-144.99;85.06;52366.56;5057534;28;19928;-81
2022/10/08 00:45:04;;;;;;;;;;;;;;;-144.99;84.86;52350.25;5060553;28;19960;-81
2022/10/08 00:47:38;;;;;;;;;;;;;;;-144.99;85.01;52374.72;5069071;28;19997;-80
2022/10/08 00:50:08;;;;;;;;;;;;;;;-144.99;86.11;52391.03;5070841;28;20327;-82
2022/10/08 00:52:37;;;;;;;;;;;;;;;-144.99;86.22;52382.88;5063894;28;19925;-79
2022/10/08 00:55:05;;;;;;;;;;;;;;;-144.99;86.54;52391.03;5056680;28;20291;-81
2022/10/08 00:57:32;;;;;;;;;;;;;;;-144.99;86.37;52393.06;5074871;28;19982;-85
2022/10/08 01:00:00;;;;;;;;;;;;;;;-144.99;86.50;52346.19;5088760;28;19956;-81
2022/10/08 01:02:26;;;;;;;;;;;;;;;-144.99;87.30;52366.56;5069079;28;19939;-79
2022/10/08 01:04:54;;;;;;;;;;;;;;;-144.99;87.44;52401.22;5070927;28;19925;-80
2022/10/08 01:07:23;;;;;;;;;;;;;;;-144.99;87.23;52329.88;5070961;28;19928;-80
2022/10/08 01:09:54;;;;;;;;;;;;;;;-144.99;87.52;52378.78;5065502;28;19928;-82
2022/10/08 01:12:27;;;;;;;;;;;;;;;-144.99;87.93;52372.69;5071295;28;19928;-79
2022/10/08 01:14:56;;;;;;;;;;;;;;;-144.99;87.35;52403.25;4721776;28;9999901;-84
2022/10/08 01:17:26;;;;;;;;;;;;;;;-144.99;87.14;52382.88;5058887;28;19936;-78
2022/10/08 01:20:13;;;;;;;;;;;;;;;-144.99;87.26;52378.78;5065035;28;20011;-81
2022/10/08 01:22:50;;;;;;;;;;;;;;;-144.99;87.13;52372.69;5065599;28;19928;-80
2022/10/08 01:25:32;;;;;;;;;;;;;;;-144.99;86.55;52374.72;5077569;28;19924;-79
2022/10/08 01:28:02;;;;;;;;;;;;;;;-144.99;86.33;52368.59;5068762;28;20295;-80
2022/10/08 01:30:32;;;;;;;;;;;;;;;-144.99;86.09;52354.34;5067069;28;19944;-82
2022/10/08 01:33:02;;;;;;;;;;;;;;;-144.99;86.30;52366.56;5068111;28;19963;-81
2022/10/08 01:35:30;;;;;;;;;;;;;;;-144.99;86.66;52395.09;5074002;28;20007;-82
2022/10/08 01:37:59;;;;;;;;;;;;;;;-144.99;86.51;52348.22;5065368;28;19924;-82
2022/10/08 01:40:27;;;;;;;;;;;;;;;-144.99;86.62;52395.09;5069076;28;19924;-80
2022/10/08 01:42:55;;;;;;;;;;;;;;;-144.99;86.06;52366.56;5054442;28;19928;-80
2022/10/08 01:45:26;;;;;;;;;;;;;;;-144.99;86.33;52374.72;5082945;28;19992;-80
2022/10/08 01:47:55;;;;;;;;;;;;;;;-144.99;85.84;52368.59;5078471;22;20299;-71
2022/10/08 01:50:25;;;;;;;;;;;;;;;-144.99;85.67;52384.91;5061940;28;19929;-71
2022/10/08 01:52:54;;;;;;;;;;;;;;;-144.99;85.66;52358.41;5067005;28;20015;-73
2022/10/08 01:55:26;;;;;;;;;;;;;;;-144.99;85.82;52368.59;5062857;28;19931;-73
2022/10/08 01:57:54;;;;;;;;;;;;;;;-144.99;85.70;52338.03;5067218;28;19924;-73
2022/10/08 02:00:20;;;;;;;;;;;;;;;-144.99;85.71;52370.63;5064981;28;20315;-72
2022/10/08 02:02:48;;;;;;;;;;;;;;;-144.99;85.51;52350.25;5081229;28;20419;-72
2022/10/08 02:05:14;;;;;;;;;;;;;;;-144.99;85.91;52399.19;5070559;28;20383;-72
2022/10/08 02:07:42;;;;;;;;;;;;;;;-144.99;85.87;52395.09;5067318;28;19939;-71
2022/10/08 02:10:10;;;;;;;;;;;;;;;-144.99;86.04;52356.38;5065318;28;19925;-72
2022/10/08 02:12:38;;;;;;;;;;;;;;;-144.99;86.34;52378.78;5063530;28;19931;-71
2022/10/08 02:15:06;;;;;;;;;;;;;;;-144.99;86.44;52378.78;5071347;28;20280;-72
2022/10/08 02:17:37;;;;;;;;;;;;;;;-144.99;86.70;52348.22;5070785;28;19924;-72
2022/10/08 02:20:10;;;;;;;;;;;;;;;-144.99;86.53;52350.25;5064180;28;19925;-73
2022/10/08 02:22:37;;;;;;;;;;;;;;;-144.99;86.32;52366.56;5067349;28;19982;-73
2022/10/08 02:25:10;;;;;;;;;;;;;;;-144.99;86.47;52362.50;5095014;28;19971;-74
2022/10/08 02:27:41;;;;;;;;;;;;;;;-144.99;86.56;52366.56;5089573;28;19930;-73
2022/10/08 02:30:09;;;;;;;;;;;;;;;-144.99;86.46;52350.25;5092079;28;20167;-72
2022/10/08 02:32:37;;;;;;;;;;;;;;;-144.99;86.67;52333.94;5091753;28;19909;-72
2022/10/08 02:35:08;;;;;;;;;;;;;;;-144.99;86.35;52362.50;5086261;28;19912;-72
2022/10/08 02:37:38;;;;;;;;;;;;;;;-144.99;85.82;52350.25;5084261;28;20197;-71
2022/10/08 02:40:07;;;;;;;;;;;;;;;-144.99;85.75;52321.72;5088350;28;19924;-72
2022/10/08 02:42:35;;;;;;;;;;;;;;;-144.99;85.91;52350.25;5084419;28;19935;-72
2022/10/08 02:45:06;;;;;;;;;;;;;;;-144.99;85.44;52325.81;5084960;28;19950;-73
2022/10/08 02:47:33;;;;;;;;;;;;;;;-144.99;85.58;52354.34;5086465;28;19935;-72
2022/10/08 02:50:01;;;;;;;;;;;;;;;-144.99;84.84;52378.78;5071231;28;19933;-71
2022/10/08 02:52:35;;;;;;;;;;;;;;;-144.99;85.53;52354.34;5061160;28;19925;-72
2022/10/08 02:55:04;;;;;;;;;;;;;;;-144.99;85.93;52356.38;5065484;28;19925;-72
2022/10/08 02:57:33;;;;;;;;;;;;;;;-144.99;84.89;52362.50;5061411;28;20410;-72
2022/10/08 03:00:00;;;;;;;;;;;;;;;-144.99;84.86;52378.78;5062321;28;19925;-73
2022/10/08 03:02:31;;;;;;;;;;;;;;;-144.99;85.50;52362.50;5067460;28;19933;-73
2022/10/08 03:05:01;;;;;;;;;;;;;;;-144.99;85.91;52338.03;5067265;28;19924;-73
2022/10/08 03:07:30;;;;;;;;;;;;;;;-144.99;86.67;52329.88;5070064;28;19924;-73
2022/10/08 03:09:58;;;;;;;;;;;;;;;-144.99;87.39;52382.88;5072988;28;19985;-73
2022/10/08 03:12:24;;;;;;;;;;;;;;;-144.99;87.21;52395.09;5075263;28;19925;-73
2022/10/08 03:14:51;;;;;;;;;;;;;;;-144.99;87.78;52378.78;5082807;28;19936;-73
2022/10/08 03:17:19;;;;;;;;;;;;;;;-144.99;88.14;52333.94;5073920;28;19947;-73
2022/10/08 03:19:46;;;;;;;;;;;;;;;-144.99;88.31;52370.63;5091288;28;19928;-74
2022/10/08 03:22:12;;;;;;;;;;;;;;;-144.99;88.30;52358.41;5092904;28;19932;-74
2022/10/08 03:24:39;;;;;;;;;;;;;;;-144.99;88.37;52329.88;5077293;28;19925;-72
2022/10/08 03:27:06;;;;;;;;;;;;;;;-144.99;88.71;52338.03;5085853;28;19929;-75
2022/10/08 03:29:32;;;;;;;;;;;;;;;-144.99;88.37;52366.56;5093112;28;20612;-75
2022/10/08 03:31:58;;;;;;;;;;;;;;;-144.99;88.44;52350.25;5083174;28;19932;-73
2022/10/08 03:34:25;;;;;;;;;;;;;;;-144.99;89.45;52366.56;5070905;28;19925;-74
2022/10/08 03:36:51;;;;;;;;;;;;;;;-144.99;89.55;52354.34;5065186;28;20461;-73
2022/10/08 03:39:18;;;;;;;;;;;;;;;-144.99;90.66;52354.34;5073859;28;19925;-74
2022/10/08 03:41:45;;;;;;;;;;;;;;;-144.99;91.72;52395.09;5075541;28;19935;-73
2022/10/08 03:44:12;;;;;;;;;;;;;;;-144.99;92.42;52370.63;5074736;28;19935;-74
2022/10/08 03:46:38;;;;;;;;;;;;;;;-144.99;93.08;52366.56;5067717;28;20453;-75
2022/10/08 03:49:04;;;;;;;;;;;;;;;-144.99;93.53;52364.53;5073761;28;19951;-72
2022/10/08 03:51:31;;;;;;;;;;;;;;;-144.99;94.46;52358.41;5070404;28;19932;-72
2022/10/08 03:53:57;;;;;;;;;;;;;;;-144.99;94.56;52372.69;5074840;28;19928;-73
2022/10/08 03:56:24;;;;;;;;;;;;;;;-144.99;94.84;52384.91;5074268;28;20034;-72
2022/10/08 03:58:53;;;;;;;;;;;;;;;-144.99;94.72;52352.28;5072712;28;19929;-72
2022/10/08 04:01:20;;;;;;;;;;;;;;;-144.99;95.18;52378.78;5068009;28;19924;-72
2022/10/08 04:03:46;;;;;;;;;;;;;;;-144.99;95.75;52370.63;5078530;28;20406;-73
2022/10/08 04:06:13;;;;;;;;;;;;;;;-144.99;95.77;52413.44;5073554;28;20408;-73
2022/10/08 04:08:39;;;;;;;;;;;;;;;-144.99;96.40;52370.63;5078541;28;19924;-73
2022/10/08 04:11:06;;;;;;;;;;;;;;;-144.99;96.36;52370.63;5080366;28;19935;-72
2022/10/08 04:13:32;;;;;;;;;;;;;;;-144.99;96.19;52370.63;5079551;28;19931;-73
2022/10/08 04:16:04;;;;;;;;;;;;;;;-144.99;95.95;52366.56;5073977;28;19936;-72
2022/10/08 04:18:31;;;;;;;;;;;;;;;-144.99;96.48;52374.72;5065832;28;19936;-73
2022/10/08 04:20:58;;;;;;;;;;;;;;;-144.99;96.45;52419.56;5077068;28;19939;-72
2022/10/08 04:23:24;;;;;;;;;;;;;;;-144.99;97.10;52364.53;5076439;28;19924;-73
2022/10/08 04:25:51;;;;;;;;;;;;;;;-144.99;97.03;52384.91;5070884;28;20456;-74
2022/10/08 04:28:18;;;;;;;;;;;;;;;-144.99;97.65;52374.72;5065796;28;20320;-73
2022/10/08 04:30:53;;;;;;;;;;;;;;;-144.99;99.00;52384.91;5067813;28;19925;-73
2022/10/08 04:33:21;;;;;;;;;;;;;;;-144.99;99.49;52350.25;5064495;28;19925;-73
2022/10/08 04:35:47;;;;;;;;;;;;;;;-144.99;100.00;52388.97;5067906;28;20281;-72
2022/10/08 04:38:14;;;;;;;;;;;;;;;-144.99;100.00;52374.72;5066245;28;20379;-73
2022/10/08 04:40:40;;;;;;;;;;;;;;;-144.99;100.00;52370.63;5063782;28;19935;-72
2022/10/08 04:43:06;;;;;;;;;;;;;;;-144.99;100.00;52346.19;5073001;28;19932;-73
2022/10/08 04:45:33;;;;;;;;;;;;;;;-144.99;100.00;52382.88;5073340;28;20395;-73
2022/10/08 04:47:59;;;;;;;;;;;;;;;-144.99;100.00;52362.50;5067305;28;20336;-73
2022/10/08 04:50:27;;;;;;;;;;;;;;;-144.99;100.00;52386.94;5064254;28;20426;-72
2022/10/08 04:52:53;;;;;;;;;;;;;;;-144.99;100.00;52362.50;5069526;28;19929;-72
2022/10/08 04:55:23;;;;;;;;;;;;;;;-144.99;100.00;52411.41;5063773;28;19947;-72
2022/10/08 04:57:50;;;;;;;;;;;;;;;-144.99;100.00;52342.09;5064248;28;20441;-72
2022/10/08 05:00:16;;;;;;;;;;;;;;;-144.99;100.00;52333.94;5064206;28;19924;-72
2022/10/08 05:02:42;;;;;;;;;;;;;;;-144.99;100.00;52386.94;5067043;28;19931;-73
2022/10/08 05:05:09;;;;;;;;;;;;;;;-144.99;100.00;52372.69;5076471;28;19924;-72
2022/10/08 05:07:36;;;;;;;;;;;;;;;-144.99;100.00;52356.38;5069689;28;19951;-72
2022/10/08 05:10:03;;;;;;;;;;;;;;;-144.99;100.00;52342.09;5065115;28;20309;-73
2022/10/08 05:12:29;;;;;;;;;;;;;;;-144.99;100.00;52386.94;5069790;28;19928;-73
2022/10/08 05:14:56;;;;;;;;;;;;;;;-144.99;100.00;52374.72;5076448;28;20019;-73
2022/10/08 05:17:22;;;;;;;;;;;;;;;-144.99;100.00;52352.28;5073637;28;19925;-73
2022/10/08 05:19:48;;;;;;;;;;;;;;;-144.99;100.00;52350.25;5065281;28;19929;-74
2022/10/08 05:22:15;;;;;;;;;;;;;;;-144.99;100.00;52342.09;5064836;28;19929;-73
2022/10/08 05:24:42;;;;;;;;;;;;;;;-144.99;100.00;52366.56;5076762;28;20121;-73
2022/10/08 05:27:09;;;;;;;;;;;;;;;-144.99;100.00;52358.41;5078885;28;19924;-73
2022/10/08 05:29:35;;;;;;;;;;;;;;;-144.99;100.00;52360.44;5083946;28;19931;-73
2022/10/08 05:32:01;;;;;;;;;;;;;;;-144.99;100.00;52407.31;5081739;28;19925;-73
2022/10/08 05:34:28;;;;;;;;;;;;;;;-144.99;100.00;52372.69;5078213;28;19935;-75
2022/10/08 05:36:54;;;;;;;;;;;;;;;-144.99;100.00;52374.72;5069171;28;19925;-74
2022/10/08 05:39:20;;;;;;;;;;;;;;;-144.99;100.00;52386.94;5066160;28;20384;-73
2022/10/08 05:41:48;;;;;;;;;;;;;;;-144.99;100.00;52346.19;5077276;28;20226;-73
2022/10/08 05:44:14;;;;;;;;;;;;;;;-144.99;100.00;52358.41;5077974;28;20395;-72
2022/10/08 05:46:41;;;;;;;;;;;;;;;-144.99;100.00;52382.88;5064910;28;20050;-73
2022/10/08 05:49:08;;;;;;;;;;;;;;;-144.99;100.00;52399.19;5061269;28;19925;-72
2022/10/08 05:51:35;;;;;;;;;;;;;;;-144.99;100.00;52354.34;5064982;28;19932;-73
2022/10/08 05:54:01;;;;;;;;;;;;;;;-144.99;100.00;52399.19;5070393;28;19983;-73
2022/10/08 05:56:27;;;;;;;;;;;;;;;-144.99;100.00;52403.25;5065983;28;19925;-72
2022/10/08 05:58:55;;;;;;;;;;;;;;;-144.99;100.00;52358.41;5078719;28;19925;-72
2022/10/08 06:01:22;;;;;;;;;;;;;;;-144.99;100.00;52366.56;5079190;28;19928;-72
2022/10/08 06:03:50;;;;;;;;;;;;;;;-144.99;100.00;52386.94;5080671;28;20034;-72
2022/10/08 06:06:16;;;;;;;;;;;;;;;-144.99;100.00;52352.28;5066214;28;19974;-72
2022/10/08 06:08:42;;;;;;;;;;;;;;;-144.99;100.00;52382.88;5076979;28;19924;-72
2022/10/08 06:11:09;;;;;;;;;;;;;;;-144.99;100.00;52366.56;5072244;28;19931;-72
2022/10/08 06:13:35;;;;;;;;;;;;;;;-144.99;100.00;52354.34;5078018;28;19940;-71
2022/10/08 06:16:04;;;;;;;;;;;;;;;-144.99;100.00;52358.41;5071779;28;19939;-72
2022/10/08 06:18:31;;;;;;;;;;;;;;;-144.99;100.00;52374.72;5068537;28;19924;-70
2022/10/08 06:20:57;;;;;;;;;;;;;;;-144.99;100.00;52338.03;5059544;28;19932;-71
2022/10/08 06:23:23;;;;;;;;;;;;;;;-144.99;100.00;52338.03;5069895;28;19931;-71
2022/10/08 06:25:50;;;;;;;;;;;;;;;-144.99;100.00;52378.78;5070276;28;19932;-71
2022/10/08 06:28:16;;;;;;;;;;;;;;;-144.99;100.00;52329.88;5068556;28;19931;-71
2022/10/08 06:30:43;;;;;;;;;;;;;;;-144.99;100.00;52333.94;5058614;28;19932;-71
2022/10/08 06:33:11;;;;;;;;;;;;;;;-144.99;100.00;52354.34;5063957;28;19924;-72
2022/10/08 06:35:37;;;;;;;;;;;;;;;-144.99;100.00;52350.25;5065504;28;19936;-71
2022/10/08 06:38:04;;;;;;;;;;;;;;;-144.99;100.00;52352.28;5060682;28;20292;-71
2022/10/08 06:40:31;;;;;;;;;;;;;;;-144.99;100.00;52362.50;5062764;28;19931;-74
2022/10/08 06:42:57;;;;;;;;;;;;;;;-144.99;100.00;52360.44;5064731;28;19931;-72
2022/10/08 06:45:23;;;;;;;;;;;;;;;-144.99;100.00;52323.75;5070148;28;19932;-73
2022/10/08 06:47:50;;;;;;;;;;;;;;;-144.99;100.00;52352.28;5068252;28;20413;-72
2022/10/08 06:50:17;;;;;;;;;;;;;;;-144.99;100.00;52321.72;5064578;28;19924;-72
2022/10/08 06:52:44;;;;;;;;;;;;;;;-144.99;100.00;52329.88;5073041;28;19935;-71
2022/10/08 06:55:10;;;;;;;;;;;;;;;-144.99;100.00;52342.09;5075590;28;19925;-73
2022/10/08 06:57:37;;;;;;;;;;;;;;;-144.99;100.00;52297.25;5066175;28;19924;-71
2022/10/08 07:00:03;;;;;;;;;;;;;;;-144.99;100.00;52358.41;5071292;28;19928;-72
2022/10/08 07:02:31;;;;;;;;;;;;;;;-144.99;100.00;52342.09;5063326;28;19925;-73
2022/10/08 07:04:57;;;;;;;;;;;;;;;-144.99;100.00;52331.91;5075486;28;20404;-72
2022/10/08 07:07:24;;;;;;;;;;;;;;;-144.99;100.00;52333.94;5072473;28;20439;-72
2022/10/08 07:09:51;;;;;;;;;;;;;;;-144.99;100.00;52338.03;5071712;28;19924;-72
2022/10/08 07:12:17;;;;;;;;;;;;;;;-144.99;100.00;52350.25;5064004;28;19925;-72
2022/10/08 07:14:44;;;;;;;;;;;;;;;-144.99;98.89;52313.56;5077450;28;19931;-72
2022/10/08 07:17:10;;;;;;;;;;;;;;;-144.99;97.91;52325.81;5072326;28;19968;-72
2022/10/08 07:19:37;;;;;;;;;;;;;;;-144.99;96.05;52325.81;5067298;28;20656;-71
2022/10/08 07:22:03;;;;;;;;;;;;;;;-144.99;95.27;52289.13;5066225;28;19932;-72
2022/10/08 07:24:31;;;;;;;;;;;;;;;-144.99;94.88;52309.50;5072544;28;19929;-73
2022/10/08 07:26:57;;;;;;;;;;;;;;;-144.99;95.09;52283.00;5069306;28;19925;-73
2022/10/08 07:29:25;;;;;;;;;;;;;;;-144.99;93.83;52321.72;5074854;28;19928;-74
2022/10/08 07:31:51;;;;;;;;;;;;;;;-144.99;93.96;52305.41;5076663;28;19931;-72
2022/10/08 07:34:17;;;;;;;;;;;;;;;-144.99;92.28;52338.03;5069348;28;19930;-72
2022/10/08 07:36:44;;;;;;;;;;;;;;;-144.99;91.11;52321.72;5078780;28;19929;-72
2022/10/08 07:39:12;;;;;;;;;;;;;;;-144.99;89.74;52315.59;5069426;28;20398;-73
2022/10/08 07:41:40;;;;;;;;;;;;;;;-144.99;90.13;52313.56;5069249;28;19929;-73
2022/10/08 07:44:07;;;;;;;;;;;;;;;-144.99;90.91;52333.94;5069516;28;19924;-72
2022/10/08 07:46:35;;;;;;;;;;;;;;;-144.99;91.16;52278.91;5074084;28;20010;-73
2022/10/08 07:49:01;;;;;;;;;;;;;;;-144.99;91.53;52270.78;5078876;28;19928;-73
2022/10/08 07:51:28;;;;;;;;;;;;;;;-144.99;91.54;52305.41;5066453;28;19928;-72
2022/10/08 07:53:55;;;;;;;;;;;;;;;-144.99;90.54;52297.25;5073039;28;19931;-73
2022/10/08 07:56:22;;;;;;;;;;;;;;;-144.99;88.80;52329.88;5072073;28;20191;-73
2022/10/08 07:58:49;;;;;;;;;;;;;;;-144.99;87.07;52291.16;5078824;28;19928;-73
2022/10/08 08:01:16;;;;;;;;;;;;;;;-144.99;84.41;52313.56;5068556;28;19929;-73
2022/10/08 08:03:43;;;;;;;;;;;;;;;-144.99;83.39;52301.34;5069793;28;19924;-72
2022/10/08 08:06:11;;;;;;;;;;;;;;;-144.99;83.11;52276.88;5070081;28;19929;-72
2022/10/08 08:08:38;;;;;;;;;;;;;;;-144.99;81.49;52289.13;5063143;28;19951;-73
2022/10/08 08:11:05;;;;;;;;;;;;;;;-144.99;81.03;52260.56;5069516;28;20371;-74
2022/10/08 08:13:32;;;;;;;;;;;;;;;-144.99;79.17;52264.66;5063642;28;19933;-75
2022/10/08 08:16:01;;;;;;;;;;;;;;;-144.99;77.85;52301.34;5066420;28;20450;-75
2022/10/08 08:18:28;;;;;;;;;;;;;;;-144.99;76.91;52254.47;5069329;28;19924;-75
2022/10/08 08:20:58;;;;;;;;;;;;;;;-144.99;77.53;52297.25;5067368;28;20206;-74
2022/10/08 08:23:28;;;;;;;;;;;;;;;-144.99;75.90;52297.25;5068094;28;19981;-75
2022/10/08 08:25:54;;;;;;;;;;;;;;;-144.99;74.35;52264.66;5066867;28;19955;-75
2022/10/08 08:28:22;;;;;;;;;;;;;;;-144.99;72.93;52272.81;5068089;28;19932;-74
2022/10/08 08:30:48;;;;;;;;;;;;;;;-144.99;73.64;52317.66;5066151;28;19924;-74
2022/10/08 08:33:16;;;;;;;;;;;;;;;-144.99;74.23;52256.50;5065219;28;19924;-75
2022/10/08 08:35:49;;;;;;;;;;;;;;;-144.99;74.20;52280.97;5064643;28;19924;-73
2022/10/08 08:38:16;;;;;;;;;;;;;;;-144.99;76.19;52276.88;4365645;28;10000764;-73
2022/10/08 08:40:42;;;;;;;;;;;;;;;-144.99;76.85;52327.84;5068376;28;19929;-72
2022/10/08 08:43:08;;;;;;;;;;;;;;;-144.99;80.04;52333.94;5067441;28;19978;-72
2022/10/08 08:45:36;;;;;;;;;;;;;;;-144.99;80.40;52295.22;5073915;28;20407;-72
2022/10/08 08:48:07;;;;;;;;;;;;;;;-144.99;80.38;52301.34;5073508;28;19936;-72
2022/10/08 08:50:36;;;;;;;;;;;;;;;-144.99;79.47;52268.72;5074285;28;19932;-73
2022/10/08 08:53:03;;;;;;;;;;;;;;;-144.99;78.70;52315.59;5075031;28;19943;-73
2022/10/08 08:55:34;;;;;;;;;;;;;;;-144.99;76.33;52325.81;5079782;28;20180;-73
2022/10/08 08:58:04;;;;;;;;;;;;;;;-144.99;74.31;52285.03;5078331;28;19943;-73
2022/10/08 09:00:34;;;;;;;;;;;;;;;-144.99;71.98;52278.91;5076498;28;19938;-72
2022/10/08 09:03:01;;;;;;;;;;;;;;;-144.99;69.66;52244.28;5072130;28;19928;-73
2022/10/08 09:05:30;;;;;;;;;;;;;;;-144.99;67.00;52256.50;5066157;28;19951;-72
2022/10/08 09:08:04;;;;;;;;;;;;;;;-144.99;65.77;52293.19;5060446;28;19933;-73
2022/10/08 09:10:35;;;;;;;;;;;;;;;-144.99;66.89;52223.88;5061858;28;19956;-73
2022/10/08 09:13:01;;;;;;;;;;;;;;;-144.99;66.02;52289.13;5061964;28;19928;-73
2022/10/08 09:15:32;;;;;;;;;;;;;;;-144.99;64.00;52252.44;5062709;28;20455;-73
2022/10/08 09:18:00;;;;;;;;;;;;;;;-144.99;61.00;52248.34;5059038;28;19928;-73
2022/10/08 09:20:27;;;;;;;;;;;;;;;-144.99;59.13;52215.75;5058773;28;19929;-73
2022/10/08 09:22:54;;;;;;;;;;;;;;;-144.99;55.29;52197.41;5060657;28;19928;-73
2022/10/08 09:25:23;;;;;;;;;;;;;;;-144.99;53.49;52195.34;5061666;28;20150;-73
2022/10/08 09:27:50;;;;;;;;;;;;;;;-144.99;52.15;52215.75;5062021;28;19924;-73
2022/10/08 09:30:26;;;;;;;;;;;;;;;-144.99;50.81;52215.75;5070212;28;19928;-73
2022/10/08 09:32:53;;;;;;;;;;;;;;;-144.99;49.39;52199.44;5059365;28;19929;-74
2022/10/08 09:35:19;;;;;;;;;;;;;;;-144.99;49.96;52236.13;5062020;28;19924;-73
2022/10/08 09:37:46;;;;;;;;;;;;;;;-144.99;49.67;52223.88;5061222;28;19935;-74
2022/10/08 09:40:21;;;;;;;;;;;;;;;-144.99;48.57;52248.34;5064827;28;19935;-73
2022/10/08 09:45:43;;;;;;;;;;;;;;;-144.99;47.23;52183.13;5138344;27;19924;-73
2022/10/08 09:48:12;;;;;;;;;;;;;;;-144.99;46.36;52146.44;5125557;27;19931;-75
2022/10/08 09:50:38;;;;;;;;;;;;;;;-144.99;44.81;52162.75;5119975;27;19928;-75
2022/10/08 09:53:05;;;;;;;;;;;;;;;-144.99;45.46;52166.81;5132716;27;19924;-74
2022/10/08 09:55:34;;;;;;;;;;;;;;;-144.99;44.79;52166.81;5140659;27;19932;-74
2022/10/08 09:58:01;;;;;;;;;;;;;;;-144.99;43.69;52142.38;5145591;27;19930;-75
2022/10/08 10:00:29;;;;;;;;;;;;;;;-144.99;42.28;52134.22;5118350;27;19928;-74
2022/10/08 10:02:58;;;;;;;;;;;;;;;-144.99;42.04;52152.56;5120704;27;19935;-74
2022/10/08 10:05:26;;;;;;;;;;;;;;;-144.99;42.65;52232.03;5120226;27;19931;-74
2022/10/08 10:07:53;;;;;;;;;;;;;;;-144.99;44.63;52246.31;5118476;27;19939;-74
2022/10/08 10:10:22;;;;;;;;;;;;;;;-144.99;45.82;52236.13;5123024;28;19923;-74
2022/10/08 10:12:51;;;;;;;;;;;;;;;-144.99;46.83;52280.97;5121066;27;19927;-73
2022/10/08 10:15:19;;;;;;;;;;;;;;;-144.99;46.42;52187.19;5124660;27;19924;-73
2022/10/08 10:17:49;;;;;;;;;;;;;;;-144.99;43.79;52115.88;5120896;27;19928;-74
2022/10/08 10:20:21;;;;;;;;;;;;;;;-144.99;41.58;52091.41;5123445;27;19923;-74
2022/10/08 10:22:52;;;;;;;;;;;;;;;-144.99;40.71;52020.09;5123066;27;19928;-73
2022/10/08 10:25:24;;;;;;;;;;;;;;;-144.99;39.72;52003.78;5123499;27;20415;-75
2022/10/08 10:27:53;;;;;;;;;;;;;;;-144.99;39.73;52154.59;5119914;27;19961;-74
2022/10/08 10:30:20;;;;;;;;;;;;;;;-144.99;42.13;52240.19;5124164;27;20208;-73
2022/10/08 10:32:49;;;;;;;;;;;;;;;-144.99;44.91;52236.13;5119824;27;19923;-73
2022/10/08 10:35:20;;;;;;;;;;;;;;;-144.99;47.90;52285.03;5121316;27;20390;-74
2022/10/08 10:37:50;;;;;;;;;;;;;;;-144.99;48.30;52333.94;5121479;27;20307;-74
2022/10/08 10:40:40;;;;;;;;;;;;;;;-144.99;49.28;52313.56;5120442;27;19947;-74
2022/10/08 10:43:14;;;;;;;;;;;;;;;-144.99;50.51;52179.06;5120520;27;19923;-73
2022/10/08 10:45:41;;;;;;;;;;;;;;;-144.99;48.59;52305.41;5118642;27;19943;-75
2022/10/08 10:48:08;;;;;;;;;;;;;;;-144.99;47.85;52227.97;5120862;28;19934;-73
2022/10/08 10:50:39;;;;;;;;;;;;;;;-144.99;48.66;52297.25;5119928;27;19924;-73
2022/10/08 10:53:11;;;;;;;;;;;;;;;-144.99;49.39;52289.13;5114164;28;20386;-74
2022/10/08 10:55:40;;;;;;;;;;;;;;;-144.99;51.39;52329.88;5108462;28;19946;-73
2022/10/08 10:58:22;;;;;;;;;;;;;;;-144.99;53.58;52368.59;5102379;28;19934;-73
2022/10/08 11:00:53;;;;;;;;;;;;;;;-144.99;59.02;52386.94;5108177;28;19927;-73
2022/10/08 11:03:23;;;;;;;;;;;;;;;-144.99;67.25;52356.38;5100707;28;19924;-73
2022/10/08 11:05:54;;;;;;;;;;;;;;;-144.99;81.42;52374.72;5106302;28;20020;-75
2022/10/08 11:08:30;;;;;;;;;;;;;;;-144.99;92.94;52370.63;5104245;28;20390;-73
2022/10/08 11:11:02;;;;;;;;;;;;;;;-144.99;95.07;52384.91;5110629;28;19957;-73
2022/10/08 11:13:36;;;;;;;;;;;;;;;-144.99;93.24;52448.09;5107474;28;20030;-72
2022/10/08 11:16:08;;;;;;;;;;;;;;;-144.99;93.90;52411.41;5108252;28;20605;-74
2022/10/08 11:18:39;;;;;;;;;;;;;;;-144.99;93.91;52378.78;5112388;27;20302;-73
2022/10/08 11:21:14;;;;;;;;;;;;;;;-144.99;93.84;52395.09;5117683;27;19923;-74
2022/10/08 11:23:49;;;;;;;;;;;;;;;-144.99;89.57;52366.56;5111388;28;19924;-73
2022/10/08 11:26:20;;;;;;;;;;;;;;;-144.99;86.97;52305.41;5108505;28;19939;-72
2022/10/08 11:28:50;;;;;;;;;;;;;;;-144.99;80.64;52325.81;5110029;28;19927;-73
2022/10/08 11:31:22;;;;;;;;;;;;;;;-144.99;75.51;52289.13;5110038;28;20417;-73
2022/10/08 11:33:49;;;;;;;;;;;;;;;-144.99;71.19;52309.50;5104992;28;19935;-73
2022/10/08 11:36:24;;;;;;;;;;;;;;;-144.99;70.29;52297.25;5106676;28;20120;-73
2022/10/08 11:38:54;;;;;;;;;;;;;;;-144.99;68.11;52174.97;5107758;28;19924;-74
2022/10/08 11:41:24;;;;;;;;;;;;;;;-144.99;61.24;52150.53;5110018;28;19923;-73
2022/10/08 11:43:54;;;;;;;;;;;;;;;-144.99;54.55;52085.31;5109588;28;19923;-74
2022/10/08 11:46:27;;;;;;;;;;;;;;;-144.99;48.80;52056.78;5103918;28;19923;-73
2022/10/08 11:48:54;;;;;;;;;;;;;;;-144.99;45.75;52044.53;5110049;28;20251;-74
2022/10/08 11:51:38;;;;;;;;;;;;;;;-144.99;43.51;51987.47;5109856;28;20166;-72
2022/10/08 11:54:18;;;;;;;;;;;;;;;-144.99;43.02;52060.84;5101815;28;19934;-72
2022/10/08 11:56:46;;;;;;;;;;;;;;;-144.99;43.02;52187.19;5107041;28;19928;-74
2022/10/08 11:59:25;;;;;;;;;;;;;;;-144.99;46.00;52256.50;5111414;28;19939;-72
2022/10/08 12:01:53;;;;;;;;;;;;;;;-144.99;47.79;52089.38;5112870;27;19927;-72
2022/10/08 12:04:20;;;;;;;;;;;;;;;-144.99;46.78;52069.00;5100205;28;19947;-73
2022/10/08 12:06:48;;;;;;;;;;;;;;;-144.99;45.13;52054.72;5105714;28;19989;-72
2022/10/08 12:09:22;;;;;;;;;;;;;;;-144.99;43.67;52007.84;5108336;27;20406;-72
2022/10/08 12:11:50;;;;;;;;;;;;;;;-144.99;41.45;52028.22;5109042;28;19935;-73
2022/10/08 12:14:26;;;;;;;;;;;;;;;-144.99;41.71;52046.56;5108664;27;19927;-72
2022/10/08 12:17:07;;;;;;;;;;;;;;;-144.99;40.76;52003.78;5104721;28;20212;-72
2022/10/08 12:19:57;;;;;;;;;;;;;;;-144.99;41.35;52087.34;5094787;28;19928;-72
2022/10/08 12:22:43;;;;;;;;;;;;;;;-144.99;41.64;52009.91;5094205;28;19934;-72
2022/10/08 12:25:32;;;;;;;;;;;;;;;-144.99;41.06;52097.53;5101971;28;19992;-74
2022/10/08 12:28:26;;;;;;;;;;;;;;;-144.99;43.19;52219.81;5115699;28;19931;-73
2022/10/08 12:30:53;;;;;;;;;;;;;;;-144.99;46.39;52150.53;5079148;28;19934;-73
2022/10/08 12:33:20;;;;;;;;;;;;;;;-144.99;45.92;52101.59;5115472;28;19946;-72
2022/10/08 12:35:53;;;;;;;;;;;;;;;-144.99;44.82;52064.91;5106865;28;20031;-73